sensor_id;sensor_type;location;lat;lon;timestamp;pressure;altitude;pressure_sealevel;temperature;humidity
8051;BME280;4068;42.158;24.732;2023-11-21T00:02:12;99487.06;;;7.52;100.00
8051;BME280;4068;42.158;24.732;2023-11-21T00:04:38;99477.06;;;7.57;100.00
8051;BME280;4068;42.158;24.732;2023-11-21T00:07:03;99475.91;;;7.62;99.65
8051;BME280;4068;42.158;24.732;2023-11-21T00:09:29;99479.91;;;7.67;99.13
8051;BME280;4068;42.158;24.732;2023-11-21T00:11:54;99481.88;;;7.76;98.37
8051;BME280;4068;42.158;24.732;2023-11-21T00:14:20;99476.22;;;7.70;98.08
8051;BME280;4068;42.158;24.732;2023-11-21T00:16:45;99487.06;;;7.78;97.23
8051;BME280;4068;42.158;24.732;2023-11-21T00:19:11;99485.50;;;7.75;96.71
8051;BME280;4068;42.158;24.732;2023-11-21T00:21:37;99481.91;;;7.64;97.66
8051;BME280;4068;42.158;24.732;2023-11-21T00:24:03;99478.00;;;7.56;98.46
8051;BME280;4068;42.158;24.732;2023-11-21T00:26:28;99473.38;;;7.47;98.39
8051;BME280;4068;42.158;24.732;2023-11-21T00:28:56;99477.78;;;7.34;99.92
8051;BME280;4068;42.158;24.732;2023-11-21T00:31:21;99478.53;;;7.23;100.00
8051;BME280;4068;42.158;24.732;2023-11-21T00:33:47;99461.41;;;7.03;100.00
8051;BME280;4068;42.158;24.732;2023-11-21T00:36:13;99437.53;;;6.79;100.00
8051;BME280;4068;42.158;24.732;2023-11-21T00:38:38;99473.06;;;6.86;100.00
8051;BME280;4068;42.158;24.732;2023-11-21T00:41:05;99435.13;;;6.61;100.00
8051;BME280;4068;42.158;24.732;2023-11-21T00:43:31;99475.88;;;6.70;100.00
8051;BME280;4068;42.158;24.732;2023-11-21T00:46:05;99465.81;;;6.62;100.00
8051;BME280;4068;42.158;24.732;2023-11-21T00:48:33;99472.91;;;6.62;100.00
8051;BME280;4068;42.158;24.732;2023-11-21T00:50:58;99475.44;;;6.63;100.00
8051;BME280;4068;42.158;24.732;2023-11-21T00:53:24;99476.41;;;6.75;100.00
8051;BME280;4068;42.158;24.732;2023-11-21T00:55:49;99450.72;;;6.51;100.00
8051;BME280;4068;42.158;24.732;2023-11-21T00:58:15;99482.09;;;6.69;100.00
8051;BME280;4068;42.158;24.732;2023-11-21T01:00:40;99482.19;;;6.67;100.00
8051;BME280;4068;42.158;24.732;2023-11-21T01:03:06;99478.47;;;6.57;100.00
8051;BME280;4068;42.158;24.732;2023-11-21T01:05:33;99471.34;;;6.45;100.00
8051;BME280;4068;42.158;24.732;2023-11-21T01:07:59;99475.84;;;6.43;100.00
8051;BME280;4068;42.158;24.732;2023-11-21T01:10:25;99476.06;;;6.39;100.00
8051;BME280;4068;42.158;24.732;2023-11-21T01:12:50;99481.94;;;6.30;100.00
8051;BME280;4068;42.158;24.732;2023-11-21T01:15:16;99484.00;;;6.25;100.00
8051;BME280;4068;42.158;24.732;2023-11-21T01:17:41;99473.66;;;6.22;100.00
8051;BME280;4068;42.158;24.732;2023-11-21T01:20:08;99484.94;;;6.24;100.00
8051;BME280;4068;42.158;24.732;2023-11-21T01:22:36;99471.88;;;6.22;100.00
8051;BME280;4068;42.158;24.732;2023-11-21T01:25:02;99474.06;;;6.16;100.00
8051;BME280;4068;42.158;24.732;2023-11-21T01:27:29;99443.81;;;6.09;100.00
8051;BME280;4068;42.158;24.732;2023-11-21T01:29:55;99469.72;;;6.15;100.00
8051;BME280;4068;42.158;24.732;2023-11-21T01:32:20;99476.97;;;6.11;100.00
8051;BME280;4068;42.158;24.732;2023-11-21T01:34:47;99474.53;;;6.08;100.00
8051;BME280;4068;42.158;24.732;2023-11-21T01:37:13;99477.47;;;6.03;100.00
8051;BME280;4068;42.158;24.732;2023-11-21T01:39:38;99478.75;;;5.96;100.00
8051;BME280;4068;42.158;24.732;2023-11-21T01:42:05;99475.47;;;5.93;100.00
8051;BME280;4068;42.158;24.732;2023-11-21T01:44:30;99472.09;;;5.91;100.00
8051;BME280;4068;42.158;24.732;2023-11-21T01:46:56;99475.22;;;5.97;100.00
8051;BME280;4068;42.158;24.732;2023-11-21T01:49:23;99473.31;;;5.99;100.00
8051;BME280;4068;42.158;24.732;2023-11-21T01:51:49;99466.34;;;6.13;100.00
8051;BME280;4068;42.158;24.732;2023-11-21T01:54:18;99447.94;;;5.98;100.00
8051;BME280;4068;42.158;24.732;2023-11-21T01:56:46;99461.66;;;6.03;100.00
8051;BME280;4068;42.158;24.732;2023-11-21T01:59:14;99462.78;;;5.99;100.00
8051;BME280;4068;42.158;24.732;2023-11-21T02:01:43;99469.88;;;5.99;100.00
8051;BME280;4068;42.158;24.732;2023-11-21T02:04:09;99469.97;;;5.97;100.00
8051;BME280;4068;42.158;24.732;2023-11-21T02:06:35;99451.22;;;6.02;100.00
8051;BME280;4068;42.158;24.732;2023-11-21T02:09:00;99454.69;;;6.02;100.00
8051;BME280;4068;42.158;24.732;2023-11-21T02:11:26;99441.34;;;5.91;100.00
8051;BME280;4068;42.158;24.732;2023-11-21T02:13:53;99459.44;;;5.97;100.00
8051;BME280;4068;42.158;24.732;2023-11-21T02:16:19;99426.44;;;5.77;100.00
8051;BME280;4068;42.158;24.732;2023-11-21T02:18:47;99459.22;;;5.86;100.00
8051;BME280;4068;42.158;24.732;2023-11-21T02:21:14;99459.78;;;5.77;100.00
8051;BME280;4068;42.158;24.732;2023-11-21T02:23:39;99462.31;;;5.64;100.00
8051;BME280;4068;42.158;24.732;2023-11-21T02:26:09;99465.44;;;5.56;100.00
8051;BME280;4068;42.158;24.732;2023-11-21T02:28:35;99459.03;;;5.46;100.00
8051;BME280;4068;42.158;24.732;2023-11-21T02:31:01;99476.22;;;5.51;100.00
8051;BME280;4068;42.158;24.732;2023-11-21T02:33:28;99478.28;;;5.46;100.00
8051;BME280;4068;42.158;24.732;2023-11-21T02:35:53;99469.09;;;5.39;100.00
8051;BME280;4068;42.158;24.732;2023-11-21T02:38:20;99435.72;;;5.11;100.00
8051;BME280;4068;42.158;24.732;2023-11-21T02:40:46;99463.72;;;5.26;100.00
8051;BME280;4068;42.158;24.732;2023-11-21T02:43:11;99446.97;;;5.13;100.00
8051;BME280;4068;42.158;24.732;2023-11-21T02:45:37;99463.09;;;5.07;100.00
8051;BME280;4068;42.158;24.732;2023-11-21T02:48:03;99432.84;;;4.85;100.00
8051;BME280;4068;42.158;24.732;2023-11-21T02:50:29;99457.94;;;5.05;100.00
8051;BME280;4068;42.158;24.732;2023-11-21T02:52:55;99468.28;;;5.08;100.00
8051;BME280;4068;42.158;24.732;2023-11-21T02:55:22;99470.25;;;5.05;100.00
8051;BME280;4068;42.158;24.732;2023-11-21T02:57:50;99467.72;;;5.03;100.00
8051;BME280;4068;42.158;24.732;2023-11-21T03:00:16;99470.50;;;5.00;100.00
8051;BME280;4068;42.158;24.732;2023-11-21T03:02:42;99465.59;;;4.94;100.00
8051;BME280;4068;42.158;24.732;2023-11-21T03:05:08;99465.69;;;4.92;100.00
8051;BME280;4068;42.158;24.732;2023-11-21T03:07:34;99478.16;;;4.89;100.00
8051;BME280;4068;42.158;24.732;2023-11-21T03:10:00;99461.50;;;4.74;100.00
8051;BME280;4068;42.158;24.732;2023-11-21T03:12:26;99488.03;;;4.85;100.00
8051;BME280;4068;42.158;24.732;2023-11-21T03:14:51;99488.84;;;4.86;100.00
8051;BME280;4068;42.158;24.732;2023-11-21T03:17:17;99470.72;;;4.81;100.00
8051;BME280;4068;42.158;24.732;2023-11-21T03:19:42;99474.69;;;4.88;100.00
8051;BME280;4068;42.158;24.732;2023-11-21T03:22:07;99458.34;;;4.83;100.00
8051;BME280;4068;42.158;24.732;2023-11-21T03:24:34;99470.19;;;4.90;100.00
8051;BME280;4068;42.158;24.732;2023-11-21T03:26:59;99469.25;;;4.91;100.00
8051;BME280;4068;42.158;24.732;2023-11-21T03:29:25;99468.50;;;4.89;100.00
8051;BME280;4068;42.158;24.732;2023-11-21T03:31:50;99444.31;;;4.68;100.00
8051;BME280;4068;42.158;24.732;2023-11-21T03:34:27;99471.66;;;4.80;100.00
8051;BME280;4068;42.158;24.732;2023-11-21T03:36:53;99477.88;;;4.79;100.00
8051;BME280;4068;42.158;24.732;2023-11-21T03:39:21;99462.72;;;4.68;100.00
8051;BME280;4068;42.158;24.732;2023-11-21T03:41:47;99477.28;;;4.74;100.00
8051;BME280;4068;42.158;24.732;2023-11-21T03:44:13;99473.97;;;4.70;100.00
8051;BME280;4068;42.158;24.732;2023-11-21T03:46:38;99482.03;;;4.67;100.00
8051;BME280;4068;42.158;24.732;2023-11-21T03:49:04;99486.53;;;4.65;100.00
8051;BME280;4068;42.158;24.732;2023-11-21T03:51:29;99484.84;;;4.64;100.00
8051;BME280;4068;42.158;24.732;2023-11-21T03:53:55;99480.78;;;4.58;100.00
8051;BME280;4068;42.158;24.732;2023-11-21T03:56:20;99476.34;;;4.75;100.00
8051;BME280;4068;42.158;24.732;2023-11-21T03:58:49;99489.25;;;4.94;100.00
8051;BME280;4068;42.158;24.732;2023-11-21T04:01:21;99483.97;;;5.24;100.00
8051;BME280;4068;42.158;24.732;2023-11-21T04:03:48;99498.22;;;5.50;100.00
8051;BME280;4068;42.158;24.732;2023-11-21T04:06:14;99506.19;;;5.49;100.00
8051;BME280;4068;42.158;24.732;2023-11-21T04:08:39;99500.16;;;5.47;100.00
8051;BME280;4068;42.158;24.732;2023-11-21T04:11:05;99492.75;;;5.53;100.00
8051;BME280;4068;42.158;24.732;2023-11-21T04:13:30;99493.59;;;5.40;100.00
8051;BME280;4068;42.158;24.732;2023-11-21T04:15:56;99472.81;;;5.21;100.00
8051;BME280;4068;42.158;24.732;2023-11-21T04:18:21;99487.50;;;5.09;100.00
8051;BME280;4068;42.158;24.732;2023-11-21T04:20:48;99501.19;;;4.99;100.00
8051;BME280;4068;42.158;24.732;2023-11-21T04:23:14;99490.31;;;5.06;100.00
8051;BME280;4068;42.158;24.732;2023-11-21T04:25:40;99489.59;;;5.18;100.00
8051;BME280;4068;42.158;24.732;2023-11-21T04:28:06;99503.75;;;5.01;100.00
8051;BME280;4068;42.158;24.732;2023-11-21T04:30:31;99482.16;;;4.80;100.00
8051;BME280;4068;42.158;24.732;2023-11-21T04:32:58;99491.50;;;4.70;100.00
8051;BME280;4068;42.158;24.732;2023-11-21T04:35:23;99517.34;;;4.77;100.00
8051;BME280;4068;42.158;24.732;2023-11-21T04:37:48;99511.19;;;4.62;100.00
8051;BME280;4068;42.158;24.732;2023-11-21T04:40:16;99508.66;;;4.45;100.00
8051;BME280;4068;42.158;24.732;2023-11-21T04:42:41;99504.00;;;4.34;100.00
8051;BME280;4068;42.158;24.732;2023-11-21T04:45:08;99511.97;;;4.32;100.00
8051;BME280;4068;42.158;24.732;2023-11-21T04:47:35;99504.84;;;4.35;100.00
8051;BME280;4068;42.158;24.732;2023-11-21T04:50:00;99507.47;;;4.35;100.00
8051;BME280;4068;42.158;24.732;2023-11-21T04:52:25;99495.28;;;4.34;100.00
8051;BME280;4068;42.158;24.732;2023-11-21T04:54:51;99513.66;;;4.34;100.00
8051;BME280;4068;42.158;24.732;2023-11-21T04:57:16;99485.72;;;4.17;100.00
8051;BME280;4068;42.158;24.732;2023-11-21T04:59:44;99518.56;;;4.24;100.00
8051;BME280;4068;42.158;24.732;2023-11-21T05:02:09;99513.66;;;4.18;100.00
8051;BME280;4068;42.158;24.732;2023-11-21T05:04:34;99503.47;;;4.11;100.00
8051;BME280;4068;42.158;24.732;2023-11-21T05:07:00;99496.13;;;4.18;100.00
8051;BME280;4068;42.158;24.732;2023-11-21T05:09:26;99485.88;;;4.13;100.00
8051;BME280;4068;42.158;24.732;2023-11-21T05:11:53;99507.91;;;4.11;100.00
8051;BME280;4068;42.158;24.732;2023-11-21T05:14:19;99496.69;;;4.07;100.00
8051;BME280;4068;42.158;24.732;2023-11-21T05:16:45;99524.25;;;4.32;100.00
8051;BME280;4068;42.158;24.732;2023-11-21T05:19:11;99521.03;;;4.27;100.00
8051;BME280;4068;42.158;24.732;2023-11-21T05:21:38;99530.16;;;4.20;100.00
8051;BME280;4068;42.158;24.732;2023-11-21T05:24:04;99524.75;;;4.07;100.00
8051;BME280;4068;42.158;24.732;2023-11-21T05:26:30;99523.03;;;4.06;100.00
8051;BME280;4068;42.158;24.732;2023-11-21T05:28:56;99524.81;;;4.05;100.00
8051;BME280;4068;42.158;24.732;2023-11-21T05:31:21;99528.44;;;4.03;100.00
8051;BME280;4068;42.158;24.732;2023-11-21T05:33:47;99528.28;;;4.06;100.00
8051;BME280;4068;42.158;24.732;2023-11-21T05:36:12;99492.97;;;3.79;100.00
8051;BME280;4068;42.158;24.732;2023-11-21T05:38:38;99526.72;;;4.19;100.00
8051;BME280;4068;42.158;24.732;2023-11-21T05:41:03;99527.53;;;4.20;100.00
8051;BME280;4068;42.158;24.732;2023-11-21T05:43:30;99535.84;;;4.12;100.00
8051;BME280;4068;42.158;24.732;2023-11-21T05:45:56;99536.50;;;4.00;100.00
8051;BME280;4068;42.158;24.732;2023-11-21T05:48:21;99525.44;;;3.77;100.00
8051;BME280;4068;42.158;24.732;2023-11-21T05:50:47;99548.31;;;3.91;100.00
8051;BME280;4068;42.158;24.732;2023-11-21T05:53:15;99528.50;;;3.85;100.00
8051;BME280;4068;42.158;24.732;2023-11-21T05:55:41;99496.69;;;3.91;100.00
8051;BME280;4068;42.158;24.732;2023-11-21T05:58:06;99493.81;;;3.96;100.00
8051;BME280;4068;42.158;24.732;2023-11-21T06:00:32;99528.06;;;4.26;100.00
8051;BME280;4068;42.158;24.732;2023-11-21T06:02:58;99529.59;;;4.46;100.00
8051;BME280;4068;42.158;24.732;2023-11-21T06:05:25;99497.63;;;4.54;100.00
8051;BME280;4068;42.158;24.732;2023-11-21T06:07:55;99537.09;;;4.69;100.00
8051;BME280;4068;42.158;24.732;2023-11-21T06:10:24;99542.41;;;4.83;100.00
8051;BME280;4068;42.158;24.732;2023-11-21T06:12:51;99539.78;;;4.83;100.00
8051;BME280;4068;42.158;24.732;2023-11-21T06:15:16;99525.06;;;4.80;100.00
8051;BME280;4068;42.158;24.732;2023-11-21T06:17:44;99533.44;;;5.03;100.00
8051;BME280;4068;42.158;24.732;2023-11-21T06:20:14;99527.41;;;5.01;100.00
8051;BME280;4068;42.158;24.732;2023-11-21T06:22:46;99553.59;;;5.33;100.00
8051;BME280;4068;42.158;24.732;2023-11-21T06:25:13;99547.31;;;5.50;100.00
8051;BME280;4068;42.158;24.732;2023-11-21T06:27:40;99554.59;;;5.61;100.00
8051;BME280;4068;42.158;24.732;2023-11-21T06:30:06;99555.72;;;5.71;100.00
8051;BME280;4068;42.158;24.732;2023-11-21T06:32:34;99547.09;;;5.83;100.00
8051;BME280;4068;42.158;24.732;2023-11-21T06:34:59;99539.59;;;5.92;100.00
8051;BME280;4068;42.158;24.732;2023-11-21T06:37:26;99556.91;;;5.96;100.00
8051;BME280;4068;42.158;24.732;2023-11-21T06:39:52;99557.75;;;6.11;100.00
8051;BME280;4068;42.158;24.732;2023-11-21T06:42:18;99566.88;;;6.19;100.00
8051;BME280;4068;42.158;24.732;2023-11-21T06:44:47;99553.88;;;6.31;100.00
8051;BME280;4068;42.158;24.732;2023-11-21T06:47:13;99549.63;;;6.43;100.00
8051;BME280;4068;42.158;24.732;2023-11-21T06:49:39;99557.63;;;6.41;100.00
8051;BME280;4068;42.158;24.732;2023-11-21T06:52:05;99548.69;;;6.44;100.00
8051;BME280;4068;42.158;24.732;2023-11-21T06:54:33;99554.63;;;6.47;100.00
8051;BME280;4068;42.158;24.732;2023-11-21T06:57:00;99550.78;;;6.38;100.00
8051;BME280;4068;42.158;24.732;2023-11-21T06:59:25;99560.75;;;6.33;100.00
8051;BME280;4068;42.158;24.732;2023-11-21T07:01:51;99556.19;;;6.50;100.00
8051;BME280;4068;42.158;24.732;2023-11-21T07:04:16;99549.25;;;6.49;100.00
8051;BME280;4068;42.158;24.732;2023-11-21T07:06:43;99572.78;;;6.52;100.00
8051;BME280;4068;42.158;24.732;2023-11-21T07:09:09;99569.06;;;6.69;100.00
8051;BME280;4068;42.158;24.732;2023-11-21T07:11:35;99572.09;;;6.90;100.00
8051;BME280;4068;42.158;24.732;2023-11-21T07:14:00;99578.44;;;6.87;100.00
8051;BME280;4068;42.158;24.732;2023-11-21T07:16:35;99580.28;;;6.85;100.00
8051;BME280;4068;42.158;24.732;2023-11-21T07:19:03;99570.97;;;6.94;100.00
8051;BME280;4068;42.158;24.732;2023-11-21T07:21:35;99580.06;;;7.03;100.00
8051;BME280;4068;42.158;24.732;2023-11-21T07:24:01;99555.53;;;6.88;100.00
8051;BME280;4068;42.158;24.732;2023-11-21T07:26:27;99570.63;;;6.86;100.00
8051;BME280;4068;42.158;24.732;2023-11-21T07:28:53;99575.53;;;6.78;100.00
8051;BME280;4068;42.158;24.732;2023-11-21T07:31:19;99566.97;;;6.74;100.00
8051;BME280;4068;42.158;24.732;2023-11-21T07:33:45;99560.31;;;6.96;100.00
8051;BME280;4068;42.158;24.732;2023-11-21T07:36:13;99565.50;;;6.97;100.00
8051;BME280;4068;42.158;24.732;2023-11-21T07:38:38;99562.50;;;6.89;100.00
8051;BME280;4068;42.158;24.732;2023-11-21T07:41:04;99565.09;;;7.03;100.00
8051;BME280;4068;42.158;24.732;2023-11-21T07:43:30;99569.59;;;7.29;100.00
8051;BME280;4068;42.158;24.732;2023-11-21T07:46:04;99576.31;;;7.60;100.00
8051;BME280;4068;42.158;24.732;2023-11-21T07:48:30;99555.81;;;7.76;100.00
8051;BME280;4068;42.158;24.732;2023-11-21T07:50:57;99595.13;;;8.07;100.00
8051;BME280;4068;42.158;24.732;2023-11-21T07:53:24;99594.56;;;8.27;99.86
8051;BME280;4068;42.158;24.732;2023-11-21T07:55:51;99570.59;;;8.18;98.97
8051;BME280;4068;42.158;24.732;2023-11-21T07:58:16;99587.50;;;8.54;98.91
8051;BME280;4068;42.158;24.732;2023-11-21T08:00:41;99589.53;;;8.74;97.88
8051;BME280;4068;42.158;24.732;2023-11-21T08:03:07;99583.59;;;8.84;96.88
8051;BME280;4068;42.158;24.732;2023-11-21T08:05:33;99563.28;;;8.84;96.08
8051;BME280;4068;42.158;24.732;2023-11-21T08:07:58;99570.50;;;9.18;95.37
8051;BME280;4068;42.158;24.732;2023-11-21T08:10:23;99574.84;;;9.19;94.58
8051;BME280;4068;42.158;24.732;2023-11-21T08:12:50;99573.28;;;9.16;95.35
8051;BME280;4068;42.158;24.732;2023-11-21T08:15:15;99560.28;;;9.13;95.69
8051;BME280;4068;42.158;24.732;2023-11-21T08:17:41;99568.06;;;9.39;94.22
8051;BME280;4068;42.158;24.732;2023-11-21T08:20:07;99567.28;;;9.49;94.30
8051;BME280;4068;42.158;24.732;2023-11-21T08:22:33;99571.19;;;9.79;93.17
8051;BME280;4068;42.158;24.732;2023-11-21T08:24:59;99533.59;;;9.74;92.12
8051;BME280;4068;42.158;24.732;2023-11-21T08:27:25;99571.56;;;10.09;91.46
8051;BME280;4068;42.158;24.732;2023-11-21T08:29:50;99543.63;;;10.05;90.81
8051;BME280;4068;42.158;24.732;2023-11-21T08:32:18;99562.03;;;10.29;90.75
8051;BME280;4068;42.158;24.732;2023-11-21T08:34:43;99555.94;;;10.51;89.90
8051;BME280;4068;42.158;24.732;2023-11-21T08:37:10;99547.91;;;10.85;88.53
8051;BME280;4068;42.158;24.732;2023-11-21T08:39:37;99548.66;;;11.08;87.02
8051;BME280;4068;42.158;24.732;2023-11-21T08:42:03;99546.03;;;11.29;86.27
8051;BME280;4068;42.158;24.732;2023-11-21T08:44:28;99547.66;;;11.63;84.13
8051;BME280;4068;42.158;24.732;2023-11-21T08:46:55;99544.66;;;11.77;83.82
8051;BME280;4068;42.158;24.732;2023-11-21T08:49:21;99543.81;;;11.77;81.59
8051;BME280;4068;42.158;24.732;2023-11-21T08:51:46;99525.16;;;11.67;81.83
8051;BME280;4068;42.158;24.732;2023-11-21T08:54:12;99531.13;;;11.80;82.02
8051;BME280;4068;42.158;24.732;2023-11-21T08:56:37;99522.63;;;11.86;83.29
8051;BME280;4068;42.158;24.732;2023-11-21T08:59:03;99495.78;;;11.89;82.83
8051;BME280;4068;42.158;24.732;2023-11-21T09:01:31;99490.34;;;11.91;79.24
8051;BME280;4068;42.158;24.732;2023-11-21T09:03:58;99509.66;;;12.14;79.48
8051;BME280;4068;42.158;24.732;2023-11-21T09:06:24;99508.69;;;12.25;78.83
8051;BME280;4068;42.158;24.732;2023-11-21T09:08:49;99496.56;;;12.42;79.44
8051;BME280;4068;42.158;24.732;2023-11-21T09:11:15;99463.81;;;12.41;78.46
8051;BME280;4068;42.158;24.732;2023-11-21T09:13:40;99495.75;;;12.71;77.89
8051;BME280;4068;42.158;24.732;2023-11-21T09:16:06;99464.66;;;12.81;74.56
8051;BME280;4068;42.158;24.732;2023-11-21T09:18:31;99489.88;;;13.06;73.67
8051;BME280;4068;42.158;24.732;2023-11-21T09:20:57;99463.56;;;12.84;70.80
8051;BME280;4068;42.158;24.732;2023-11-21T09:23:23;99479.09;;;12.98;71.19
8051;BME280;4068;42.158;24.732;2023-11-21T09:25:49;99471.78;;;13.29;69.73
8051;BME280;4068;42.158;24.732;2023-11-21T09:28:15;99463.78;;;13.49;67.25
8051;BME280;4068;42.158;24.732;2023-11-21T09:30:42;99453.00;;;13.41;67.35
8051;BME280;4068;42.158;24.732;2023-11-21T09:33:08;99461.53;;;13.54;66.69
8051;BME280;4068;42.158;24.732;2023-11-21T09:35:37;99447.00;;;13.19;67.15
8051;BME280;4068;42.158;24.732;2023-11-21T09:38:03;99452.63;;;13.36;66.49
8051;BME280;4068;42.158;24.732;2023-11-21T09:40:35;99440.97;;;13.37;65.40
8051;BME280;4068;42.158;24.732;2023-11-21T09:43:17;99436.03;;;13.42;65.92
8051;BME280;4068;42.158;24.732;2023-11-21T09:45:47;99450.22;;;13.80;66.21
8051;BME280;4068;42.158;24.732;2023-11-21T09:48:14;99443.78;;;13.83;64.26
8051;BME280;4068;42.158;24.732;2023-11-21T09:50:42;99419.59;;;13.94;64.22
8051;BME280;4068;42.158;24.732;2023-11-21T09:53:20;99432.06;;;14.21;63.22
8051;BME280;4068;42.158;24.732;2023-11-21T09:55:53;99437.69;;;14.18;62.53
8051;BME280;4068;42.158;24.732;2023-11-21T09:58:19;99426.19;;;14.18;62.19
8051;BME280;4068;42.158;24.732;2023-11-21T10:00:48;99409.81;;;14.12;62.63
8051;BME280;4068;42.158;24.732;2023-11-21T10:03:15;99410.28;;;14.44;62.24
8051;BME280;4068;42.158;24.732;2023-11-21T10:05:43;99415.50;;;14.63;60.88
8051;BME280;4068;42.158;24.732;2023-11-21T10:08:10;99397.88;;;14.71;60.20
8051;BME280;4068;42.158;24.732;2023-11-21T10:10:46;99381.13;;;15.05;58.84
8051;BME280;4068;42.158;24.732;2023-11-21T10:13:14;99395.00;;;15.08;58.72
8051;BME280;4068;42.158;24.732;2023-11-21T10:15:43;99384.94;;;15.28;57.96
8051;BME280;4068;42.158;24.732;2023-11-21T10:18:14;99379.47;;;15.04;58.25
8051;BME280;4068;42.158;24.732;2023-11-21T10:20:40;99373.75;;;14.98;56.50
8051;BME280;4068;42.158;24.732;2023-11-21T10:23:06;99363.50;;;14.67;57.18
8051;BME280;4068;42.158;24.732;2023-11-21T10:25:32;99367.97;;;14.85;57.08
8051;BME280;4068;42.158;24.732;2023-11-21T10:27:59;99382.31;;;15.10;56.67
8051;BME280;4068;42.158;24.732;2023-11-21T10:30:38;99372.91;;;15.24;56.54
8051;BME280;4068;42.158;24.732;2023-11-21T10:33:07;99368.22;;;15.52;56.72
8051;BME280;4068;42.158;24.732;2023-11-21T10:35:45;99372.09;;;15.58;55.10
8051;BME280;4068;42.158;24.732;2023-11-21T10:38:20;99366.13;;;15.73;54.04
8051;BME280;4068;42.158;24.732;2023-11-21T10:40:50;99365.44;;;14.83;56.08
8051;BME280;4068;42.158;24.732;2023-11-21T10:43:16;99361.44;;;15.06;56.55
8051;BME280;4068;42.158;24.732;2023-11-21T10:45:42;99354.16;;;15.16;55.74
8051;BME280;4068;42.158;24.732;2023-11-21T10:48:13;99358.28;;;15.36;55.58
8051;BME280;4068;42.158;24.732;2023-11-21T10:50:43;99332.88;;;15.32;55.04
8051;BME280;4068;42.158;24.732;2023-11-21T10:53:09;99342.09;;;15.12;55.03
8051;BME280;4068;42.158;24.732;2023-11-21T10:55:37;99341.16;;;15.21;55.30
8051;BME280;4068;42.158;24.732;2023-11-21T10:58:03;99345.81;;;15.19;55.87
8051;BME280;4068;42.158;24.732;2023-11-21T11:00:31;99318.97;;;15.21;55.87
8051;BME280;4068;42.158;24.732;2023-11-21T11:02:57;99347.25;;;15.05;54.94
8051;BME280;4068;42.158;24.732;2023-11-21T11:05:26;99325.88;;;14.79;56.18
8051;BME280;4068;42.158;24.732;2023-11-21T11:08:05;99326.66;;;14.97;56.30
8051;BME280;4068;42.158;24.732;2023-11-21T11:10:31;99327.94;;;15.11;55.44
8051;BME280;4068;42.158;24.732;2023-11-21T11:12:58;99317.84;;;15.31;55.72
8051;BME280;4068;42.158;24.732;2023-11-21T11:15:25;99316.91;;;15.41;54.94
8051;BME280;4068;42.158;24.732;2023-11-21T11:17:52;99308.03;;;15.40;54.09
8051;BME280;4068;42.158;24.732;2023-11-21T11:20:23;99299.09;;;15.58;53.41
8051;BME280;4068;42.158;24.732;2023-11-21T11:25:54;99279.47;;;15.32;54.33
8051;BME280;4068;42.158;24.732;2023-11-21T11:31:09;99270.13;;;15.36;54.15
8051;BME280;4068;42.158;24.732;2023-11-21T11:33:40;99251.25;;;15.38;54.47
8051;BME280;4068;42.158;24.732;2023-11-21T11:36:17;99241.31;;;15.14;55.62
8051;BME280;4068;42.158;24.732;2023-11-21T11:38:47;99219.59;;;15.09;56.35
8051;BME280;4068;42.158;24.732;2023-11-21T11:41:28;99195.72;;;15.07;56.03
8051;BME280;4068;42.158;24.732;2023-11-21T11:43:56;99205.44;;;14.82;56.65
8051;BME280;4068;42.158;24.732;2023-11-21T11:46:40;99186.72;;;14.47;57.07
8051;BME280;4068;42.158;24.732;2023-11-21T11:49:07;99197.97;;;14.59;57.29
8051;BME280;4068;42.158;24.732;2023-11-21T11:51:33;99217.59;;;14.76;56.74
8051;BME280;4068;42.158;24.732;2023-11-21T11:54:01;99216.91;;;14.74;56.94
8051;BME280;4068;42.158;24.732;2023-11-21T11:56:33;99205.09;;;14.77;57.14
8051;BME280;4068;42.158;24.732;2023-11-21T11:59:04;99168.19;;;14.46;57.09
8051;BME280;4068;42.158;24.732;2023-11-21T12:01:32;99181.53;;;14.46;57.62
8051;BME280;4068;42.158;24.732;2023-11-21T12:06:48;99194.50;;;14.41;57.80
8051;BME280;4068;42.158;24.732;2023-11-21T12:09:21;99174.44;;;14.10;58.48
8051;BME280;4068;42.158;24.732;2023-11-21T12:11:48;99189.13;;;14.32;58.52
8051;BME280;4068;42.158;24.732;2023-11-21T12:14:14;99156.16;;;14.15;59.10
8051;BME280;4068;42.158;24.732;2023-11-21T12:16:40;99175.31;;;14.11;59.10
8051;BME280;4068;42.158;24.732;2023-11-21T12:19:06;99191.72;;;14.24;59.14
8051;BME280;4068;42.158;24.732;2023-11-21T12:21:31;99176.81;;;14.13;59.25
8051;BME280;4068;42.158;24.732;2023-11-21T12:23:58;99180.69;;;14.19;59.40
8051;BME280;4068;42.158;24.732;2023-11-21T12:26:24;99187.03;;;14.18;59.62
8051;BME280;4068;42.158;24.732;2023-11-21T12:28:53;99200.41;;;14.26;59.50
8051;BME280;4068;42.158;24.732;2023-11-21T12:31:21;99206.78;;;14.33;58.68
8051;BME280;4068;42.158;24.732;2023-11-21T12:33:47;99184.47;;;14.35;58.60
8051;BME280;4068;42.158;24.732;2023-11-21T12:36:12;99210.44;;;14.59;58.20
8051;BME280;4068;42.158;24.732;2023-11-21T12:38:38;99204.91;;;14.52;57.85
8051;BME280;4068;42.158;24.732;2023-11-21T12:41:04;99185.81;;;14.39;58.41
8051;BME280;4068;42.158;24.732;2023-11-21T12:43:31;99178.97;;;14.36;58.62
8051;BME280;4068;42.158;24.732;2023-11-21T12:46:11;99170.41;;;14.24;58.91
8051;BME280;4068;42.158;24.732;2023-11-21T12:48:41;99190.34;;;14.46;58.61
8051;BME280;4068;42.158;24.732;2023-11-21T12:51:11;99162.00;;;14.19;59.69
8051;BME280;4068;42.158;24.732;2023-11-21T12:53:41;99177.91;;;14.29;59.75
8051;BME280;4068;42.158;24.732;2023-11-21T12:56:13;99172.59;;;14.29;59.76
8051;BME280;4068;42.158;24.732;2023-11-21T12:58:39;99167.19;;;14.21;60.25
8051;BME280;4068;42.158;24.732;2023-11-21T13:01:07;99148.31;;;14.14;60.81
8051;BME280;4068;42.158;24.732;2023-11-21T13:03:38;99165.38;;;14.21;61.15
8051;BME280;4068;42.158;24.732;2023-11-21T13:06:04;99165.88;;;14.25;61.08
8051;BME280;4068;42.158;24.732;2023-11-21T13:08:31;99138.25;;;14.08;60.75
8051;BME280;4068;42.158;24.732;2023-11-21T13:10:58;99174.59;;;14.27;61.01
8051;BME280;4068;42.158;24.732;2023-11-21T13:13:25;99174.53;;;14.01;60.54
8051;BME280;4068;42.158;24.732;2023-11-21T13:15:54;99162.97;;;14.10;60.71
8051;BME280;4068;42.158;24.732;2023-11-21T13:18:23;99171.91;;;14.27;60.06
8051;BME280;4068;42.158;24.732;2023-11-21T13:20:49;99171.59;;;14.30;59.79